Lyons, CO (80540)

4:13 AM MST on December 28, 2014 (GMT -0700)
Kelling | Change Station
CLOSE
Current Station
Personal Weather Station
Location: Lyons, CO
Elevation: 5436 ft
Nearby Weather Stations

Elev 5436 ft 40.22 °N, 105.26 °W | Updated 1 second ago

Partly Cloudy
Partly Cloudy
12.7 °F
Feels Like 13 °F
N
1.6
Wind Variable Wind from South
Gusts 3.8 mph

Today
High -- | Low -- °F
--% Chance of Precip.
Yesterday
High -- | Low -- °F
Precip. -- in
7:22 AM 4:42 PM
Waxing Crescent, 46% visible
Pressure 29.97 in
Visibility 10.0 miles
Clouds Clear
Windchill 13 °F
Dew Point 5 °F
Humidity 69%
Rainfall 0.00 in
Snow Depth Not available.
UV out of 12
Pollen .10 out of 12
Air Quality Not available.
Flu Activity Not available.
METAR KLMO 281055Z AUTO 00000KT 10SM CLR M13/M15 A2997 RMK AO2 T11321152

More Conditions Fewer Conditions

Pressure 29.97 in
Visibility 10.0 miles
Clouds Clear
Windchill 13 °F
Dew Point 5 °F
Humidity 69%
Rainfall 0.00 in
Snow Depth Not available.
UV out of 12
Pollen .10 out of 12
Air Quality Not available.
Flu Activity Not available.
METAR KLMO 281055Z AUTO 00000KT 10SM CLR M13/M15 A2997 RMK AO2 T11321152

More Conditions Fewer Conditions

10-Day Weather Forecast

Almanac

Astronomy

Dec. 28, 2014 Rise Set
Actual Time
Civil Twilight
Nautical Twilight
Astronomical Twilight
Moon
Length of Visible Light
Length of Day
Tomorrow will be .
, % of the Moon is Illuminated

Today's Extremes

State Highs State Lows

Community

WunderPhotos

Upload Photos

1,781,232 photos uploaded!

WunderBlogs® & News

Nearby

Air Quality

  Air Quality AQ Index Pollutant
Not available.

Snow Depth

Station Depth Elevation

Earthquake Activity

City Distance Mag. Time & Date
Minimum magnitude displayed is 2.5.

Coastal Water Temperatures

Place Temperature

Nearby Weather Stations